Main page
METAR-TAF:

METAR-TAF

Airports :

Spirit of St. Louis Airport

St. Louis, Missouri, United States

latitude: 38-39-26N, longitude: 090-39-21W, elevation: 462 ft

Current weather observation

The report was made 11 minutes ago, at 12:54 UTC
Calm wind
Temperature 66°F
Humidity 88%
Pressure 29.90 in. Hg
Visibility: 10 miles
Overcast at a height of 5500 ft

METAR: KSUS 231254Z 00000KT 10SM OVC055 19/17 A2990 RMK AO2 SLP121 T01890172

Time: 08:05 (13:05 UTC)

Forecast

The report was made 1 hour and 45 minutes ago, at 11:20 UTC
Forecast valid from 23 at 12 UTC to 24 at 12 UTC
Wind 6 mph from the East/Southeast
Visibility: 6 miles
Scattered clouds at a height of 4000 ft
From 23 at 2300 UTC
Wind 6 mph from the South/Southeast
Visibility: 6 miles
Few clouds at a height of 25000 ft

TAF: KSUS 231120Z 2312/2412 12005KT P6SM SCT040 FM232300 15005KT P6SM FEW250

Weather observations and forecasts of more than 4000 airports (METAR and TAF reports).

The available stations are represented by yellow and red dots on the map.

Hover mouse over dot to see the name of the station.

Then click to see weather observations and forecasts.

To change the map : click on the green buttons with a black cross to zoom in, on the green button with a dash to zoom out, or on the green arrows for adjacent maps.


METAR-TAF: